Time;durP1;ratioP1;P1;durP2;ratioP2;P2;SDS_P1;SDS_P2;PMS_P1;PMS_P2;Temp;Humidity;BMP_temperature;BMP_pressure;BME280_temperature;BME280_humidity;BME280_pressure;Samples;Min_cycle;Max_cycle;Signal;HPM_P1;HPM_P2
2023/03/15 00:00:26;;;;;;;12.33;1.57;;;;;;;;;;5038256;28;20802;-72
2023/03/15 00:02:52;;;;;;;6.90;1.67;;;;;;;;;;5039337;28;20440;-72
2023/03/15 00:05:17;;;;;;;6.37;1.70;;;;;;;;;;5039898;28;20278;-72
2023/03/15 00:07:42;;;;;;;5.80;1.93;;;;;;;;;;5038336;28;21092;-72
2023/03/15 00:10:08;;;;;;;8.63;1.70;;;;;;;;;;5035343;28;20188;-72
2023/03/15 00:12:33;;;;;;;8.40;2.43;;;;;;;;;;5036380;28;20196;-72
2023/03/15 00:14:59;;;;;;;7.00;1.47;;;;;;;;;;5030796;28;20206;-75
2023/03/15 00:17:24;;;;;;;4.70;1.00;;;;;;;;;;5037833;28;20195;-72
2023/03/15 00:19:50;;;;;;;8.27;1.33;;;;;;;;;;5037631;28;20194;-75
2023/03/15 00:22:15;;;;;;;6.70;2.20;;;;;;;;;;5038418;28;20181;-74
2023/03/15 00:24:40;;;;;;;5.30;1.43;;;;;;;;;;5036982;28;25065;-74
2023/03/15 00:27:06;;;;;;;5.97;1.23;;;;;;;;;;5038056;28;20172;-74
2023/03/15 00:29:31;;;;;;;3.07;1.50;;;;;;;;;;5026962;28;20206;-72
2023/03/15 00:31:57;;;;;;;5.80;1.63;;;;;;;;;;5032609;28;20651;-75
2023/03/15 00:34:25;;;;;;;9.23;1.60;;;;;;;;;;5039166;28;20219;-74
2023/03/15 00:36:52;;;;;;;8.70;1.67;;;;;;;;;;5035353;28;20176;-74
2023/03/15 00:39:17;;;;;;;6.53;1.43;;;;;;;;;;5034849;28;20493;-74
2023/03/15 00:41:44;;;;;;;4.93;1.20;;;;;;;;;;5032688;28;25106;-72
2023/03/15 00:44:10;;;;;;;4.40;1.67;;;;;;;;;;5030809;28;20218;-72
2023/03/15 00:46:35;;;;;;;6.33;1.73;;;;;;;;;;5036570;28;20453;-72
2023/03/15 00:49:00;;;;;;;6.10;1.30;;;;;;;;;;5029650;28;20198;-72
2023/03/15 00:51:26;;;;;;;9.20;1.80;;;;;;;;;;5034965;28;20174;-72
2023/03/15 00:53:52;;;;;;;3.73;1.10;;;;;;;;;;5021781;28;20286;-72
2023/03/15 00:56:18;;;;;;;6.00;1.47;;;;;;;;;;5029073;28;20196;-73
2023/03/15 00:58:44;;;;;;;5.47;1.20;;;;;;;;;;5028481;28;20184;-73
2023/03/15 01:01:11;;;;;;;6.20;1.40;;;;;;;;;;5030347;28;25116;-73
2023/03/15 01:03:36;;;;;;;4.83;1.40;;;;;;;;;;5030234;28;25067;-73
2023/03/15 01:06:10;;;;;;;5.17;1.10;;;;;;;;;;5032495;28;20443;-73
2023/03/15 01:08:35;;;;;;;4.17;1.10;;;;;;;;;;5043496;28;20757;-72
2023/03/15 01:11:01;;;;;;;3.17;1.10;;;;;;;;;;5033952;28;20430;-72
2023/03/15 01:13:26;;;;;;;3.77;0.90;;;;;;;;;;5024488;28;20208;-73
2023/03/15 01:15:52;;;;;;;4.10;1.27;;;;;;;;;;5032264;28;20918;-72
2023/03/15 01:18:17;;;;;;;5.83;1.20;;;;;;;;;;5030653;28;20180;-73
2023/03/15 01:20:44;;;;;;;3.53;1.00;;;;;;;;;;5030470;28;20229;-72
2023/03/15 01:23:09;;;;;;;6.60;1.10;;;;;;;;;;5029200;28;20180;-73
2023/03/15 01:25:34;;;;;;;4.20;1.63;;;;;;;;;;5046654;28;20493;-73
2023/03/15 01:27:59;;;;;;;9.50;1.10;;;;;;;;;;5029455;28;20711;-73
2023/03/15 01:30:25;;;;;;;6.27;1.27;;;;;;;;;;5034736;28;20199;-73
2023/03/15 01:32:50;;;;;;;3.87;1.37;;;;;;;;;;5036634;28;20574;-73
2023/03/15 01:35:15;;;;;;;3.03;0.90;;;;;;;;;;5027770;28;20206;-73
2023/03/15 01:37:40;;;;;;;4.00;1.03;;;;;;;;;;5026354;28;20188;-73
2023/03/15 01:40:08;;;;;;;2.83;0.90;;;;;;;;;;5025641;28;20263;-73
2023/03/15 01:42:49;;;;;;;4.40;0.80;;;;;;;;;;5042871;28;20542;-73
2023/03/15 01:45:33;;;;;;;7.60;1.07;;;;;;;;;;5024436;28;20474;-73
2023/03/15 01:47:58;;;;;;;1.63;0.77;;;;;;;;;;5024888;28;20959;-73
2023/03/15 01:50:24;;;;;;;4.03;1.00;;;;;;;;;;5027255;28;20431;-73
2023/03/15 01:52:49;;;;;;;1.07;0.70;;;;;;;;;;5025142;28;20210;-73
2023/03/15 01:55:18;;;;;;;3.37;1.00;;;;;;;;;;5027742;28;20203;-73
2023/03/15 01:57:43;;;;;;;3.43;0.80;;;;;;;;;;5021983;28;20187;-73
2023/03/15 02:00:11;;;;;;;2.43;1.10;;;;;;;;;;5022293;28;20458;-73
2023/03/15 02:02:45;;;;;;;5.00;1.73;;;;;;;;;;5026141;28;25083;-73
2023/03/15 02:05:13;;;;;;;3.60;1.00;;;;;;;;;;5025791;28;20468;-73
2023/03/15 02:07:48;;;;;;;3.50;0.90;;;;;;;;;;5029214;28;20439;-73
2023/03/15 02:10:16;;;;;;;3.13;0.80;;;;;;;;;;5021575;28;25119;-73
2023/03/15 02:12:44;;;;;;;5.20;1.00;;;;;;;;;;5022735;28;20439;-74
2023/03/15 02:15:10;;;;;;;6.23;0.90;;;;;;;;;;5021312;28;20493;-73
2023/03/15 02:17:39;;;;;;;1.83;0.70;;;;;;;;;;5021124;28;20457;-73
2023/03/15 02:20:05;;;;;;;4.17;1.00;;;;;;;;;;5026640;28;20433;-74
2023/03/15 02:22:30;;;;;;;1.77;0.80;;;;;;;;;;5029318;28;20437;-74
2023/03/15 02:25:19;;;;;;;4.00;1.07;;;;;;;;;;5026214;28;20208;-73
2023/03/15 02:27:44;;;;;;;4.80;0.97;;;;;;;;;;4994180;28;20200;-74
2023/03/15 02:30:10;;;;;;;2.57;1.00;;;;;;;;;;5026696;28;20438;-74
2023/03/15 02:32:35;;;;;;;3.37;0.80;;;;;;;;;;5025490;28;20650;-74
2023/03/15 02:35:00;;;;;;;5.57;1.20;;;;;;;;;;5025529;28;20848;-74
2023/03/15 02:37:26;;;;;;;3.23;0.90;;;;;;;;;;5025650;28;20188;-73
2023/03/15 02:39:52;;;;;;;1.03;0.70;;;;;;;;;;5026657;28;20212;-73
2023/03/15 02:42:18;;;;;;;3.70;0.97;;;;;;;;;;5023762;28;20229;-74
2023/03/15 02:44:44;;;;;;;4.83;1.17;;;;;;;;;;5028179;28;20261;-74
2023/03/15 02:47:12;;;;;;;3.50;1.07;;;;;;;;;;5028256;28;20417;-74
2023/03/15 02:49:39;;;;;;;4.37;0.90;;;;;;;;;;5018613;28;20469;-74
2023/03/15 02:52:05;;;;;;;4.10;1.00;;;;;;;;;;5023666;28;20508;-73
2023/03/15 02:54:33;;;;;;;6.03;0.90;;;;;;;;;;5021204;28;21535;-73
2023/03/15 02:56:58;;;;;;;3.53;0.80;;;;;;;;;;5024532;28;20173;-74
2023/03/15 02:59:24;;;;;;;4.77;1.20;;;;;;;;;;5019672;28;20443;-73
2023/03/15 03:01:50;;;;;;;7.27;1.37;;;;;;;;;;5025732;28;20267;-74
2023/03/15 03:04:15;;;;;;;3.43;1.30;;;;;;;;;;5025977;28;20405;-73
2023/03/15 03:06:42;;;;;;;3.77;1.30;;;;;;;;;;5033639;28;20226;-74
2023/03/15 03:09:08;;;;;;;5.77;1.30;;;;;;;;;;5032177;28;20263;-73
2023/03/15 03:11:33;;;;;;;3.43;0.90;;;;;;;;;;5027944;28;20438;-73
2023/03/15 03:13:58;;;;;;;5.37;1.43;;;;;;;;;;5025514;28;20209;-73
2023/03/15 03:16:24;;;;;;;6.50;0.80;;;;;;;;;;5028190;28;20191;-74
2023/03/15 03:18:50;;;;;;;4.03;0.87;;;;;;;;;;5025885;28;20196;-73
2023/03/15 03:21:15;;;;;;;2.90;1.10;;;;;;;;;;5033637;28;20211;-73
2023/03/15 03:23:40;;;;;;;4.07;1.43;;;;;;;;;;5036677;28;25163;-73
2023/03/15 03:26:11;;;;;;;6.10;1.47;;;;;;;;;;5035748;28;20176;-73
2023/03/15 03:28:36;;;;;;;3.33;1.20;;;;;;;;;;5035814;28;20184;-73
2023/03/15 03:31:01;;;;;;;5.60;1.17;;;;;;;;;;5036898;28;20425;-73
2023/03/15 03:33:27;;;;;;;4.67;1.00;;;;;;;;;;5038460;28;20732;-73
2023/03/15 03:35:53;;;;;;;3.63;1.20;;;;;;;;;;5034234;28;20188;-73
2023/03/15 03:38:18;;;;;;;4.73;0.90;;;;;;;;;;5034517;28;20199;-73
2023/03/15 03:40:44;;;;;;;4.63;1.20;;;;;;;;;;5037346;28;20770;-73
2023/03/15 03:43:09;;;;;;;6.10;1.17;;;;;;;;;;5037517;28;20188;-73
2023/03/15 03:45:35;;;;;;;11.53;1.40;;;;;;;;;;5038133;28;20443;-73
2023/03/15 03:48:00;;;;;;;9.97;2.83;;;;;;;;;;5037976;28;20639;-72
2023/03/15 03:50:26;;;;;;;12.63;2.13;;;;;;;;;;5039893;28;20181;-73
2023/03/15 03:52:51;;;;;;;6.00;1.67;;;;;;;;;;5028833;28;20180;-73
2023/03/15 03:55:16;;;;;;;8.20;1.70;;;;;;;;;;5028479;28;20219;-73
2023/03/15 03:57:44;;;;;;;7.63;2.00;;;;;;;;;;5036529;28;20193;-73
2023/03/15 04:00:13;;;;;;;11.00;1.97;;;;;;;;;;5036191;28;20190;-73
2023/03/15 04:02:38;;;;;;;9.63;2.27;;;;;;;;;;5031546;28;20438;-73
2023/03/15 04:05:03;;;;;;;4.13;2.03;;;;;;;;;;5028545;28;20471;-73
2023/03/15 04:07:29;;;;;;;4.40;1.27;;;;;;;;;;5032055;28;20272;-73
2023/03/15 04:09:54;;;;;;;6.63;1.33;;;;;;;;;;5033278;28;20294;-73
2023/03/15 04:12:19;;;;;;;5.40;1.60;;;;;;;;;;5033383;28;20176;-73
2023/03/15 04:14:44;;;;;;;7.00;2.13;;;;;;;;;;5030332;28;21113;-74
2023/03/15 04:17:10;;;;;;;4.53;1.20;;;;;;;;;;5037775;28;20196;-73
2023/03/15 04:19:35;;;;;;;5.37;1.77;;;;;;;;;;5028764;28;20184;-73
2023/03/15 04:22:05;;;;;;;6.70;1.27;;;;;;;;;;5032936;28;20191;-74
2023/03/15 04:24:33;;;;;;;2.10;0.90;;;;;;;;;;5026655;28;20223;-74
2023/03/15 04:26:59;;;;;;;3.77;1.10;;;;;;;;;;5045812;22;20502;-70
2023/03/15 04:29:24;;;;;;;7.10;1.60;;;;;;;;;;5033031;28;21496;-70
2023/03/15 04:31:49;;;;;;;5.50;1.10;;;;;;;;;;5043872;28;20177;-70
2023/03/15 04:34:15;;;;;;;3.03;1.00;;;;;;;;;;5041846;28;20181;-70
2023/03/15 04:36:41;;;;;;;3.70;1.13;;;;;;;;;;5041646;28;20968;-71
2023/03/15 04:39:06;;;;;;;2.70;1.00;;;;;;;;;;5040471;28;20203;-70
2023/03/15 04:41:33;;;;;;;5.20;1.10;;;;;;;;;;5041092;28;25139;-71
2023/03/15 04:43:59;;;;;;;3.27;0.90;;;;;;;;;;5033032;28;20520;-70
2023/03/15 04:46:24;;;;;;;9.50;1.43;;;;;;;;;;5045339;28;20942;-70
2023/03/15 04:48:50;;;;;;;9.47;1.47;;;;;;;;;;5046438;28;20181;-70
2023/03/15 04:51:15;;;;;;;3.50;1.13;;;;;;;;;;5047024;28;20244;-69
2023/03/15 04:53:40;;;;;;;5.60;1.53;;;;;;;;;;5045033;28;20647;-70
2023/03/15 04:56:06;;;;;;;4.43;1.17;;;;;;;;;;5045661;28;20528;-71
2023/03/15 04:58:31;;;;;;;4.60;1.23;;;;;;;;;;5046073;28;20687;-71
2023/03/15 05:00:56;;;;;;;3.50;1.20;;;;;;;;;;5046114;28;20196;-71
2023/03/15 05:03:21;;;;;;;4.17;1.23;;;;;;;;;;5039748;28;20490;-71
2023/03/15 05:05:47;;;;;;;9.83;1.33;;;;;;;;;;5045149;28;20180;-70
2023/03/15 05:08:12;;;;;;;5.97;2.90;;;;;;;;;;5035848;28;20263;-71
2023/03/15 05:10:37;;;;;;;8.23;1.70;;;;;;;;;;5041488;28;20208;-71
2023/03/15 05:13:03;;;;;;;5.77;1.10;;;;;;;;;;5042676;28;20176;-70
2023/03/15 05:15:28;;;;;;;6.33;1.50;;;;;;;;;;5041476;28;20183;-70
2023/03/15 05:17:54;;;;;;;2.87;1.30;;;;;;;;;;5044198;28;20199;-71
2023/03/15 05:20:20;;;;;;;1.67;0.90;;;;;;;;;;5045267;28;20188;-70
2023/03/15 05:22:45;;;;;;;3.30;1.20;;;;;;;;;;5048832;28;20538;-70
2023/03/15 05:25:11;;;;;;;3.53;1.17;;;;;;;;;;5047822;28;25104;-71
2023/03/15 05:27:37;;;;;;;3.90;1.07;;;;;;;;;;5046070;28;20595;-70
2023/03/15 05:30:03;;;;;;;4.10;1.23;;;;;;;;;;5047599;28;20237;-70
2023/03/15 05:32:33;;;;;;;4.23;1.40;;;;;;;;;;5053331;28;20191;-70
2023/03/15 05:35:02;;;;;;;4.70;1.10;;;;;;;;;;5043271;28;20488;-70
2023/03/15 05:37:28;;;;;;;3.40;1.30;;;;;;;;;;5039422;28;20460;-71
2023/03/15 05:39:53;;;;;;;2.73;0.93;;;;;;;;;;5044653;28;20426;-70
2023/03/15 05:42:24;;;;;;;4.87;1.50;;;;;;;;;;5042759;28;20333;-70
2023/03/15 05:44:50;;;;;;;4.47;0.90;;;;;;;;;;5042463;28;20348;-70
2023/03/15 05:47:16;;;;;;;7.03;1.00;;;;;;;;;;5032039;28;20540;-70
2023/03/15 05:49:41;;;;;;;4.73;1.30;;;;;;;;;;5035246;28;20513;-70
2023/03/15 05:52:06;;;;;;;2.93;1.10;;;;;;;;;;5041220;28;20272;-70
2023/03/15 05:54:32;;;;;;;3.53;0.90;;;;;;;;;;5037834;28;20187;-70
2023/03/15 05:56:57;;;;;;;7.37;0.80;;;;;;;;;;5042119;28;20204;-71
2023/03/15 05:59:22;;;;;;;4.53;1.20;;;;;;;;;;5039695;28;20184;-71
2023/03/15 06:01:48;;;;;;;4.67;0.90;;;;;;;;;;5042365;28;20184;-71
2023/03/15 06:04:13;;;;;;;9.40;1.20;;;;;;;;;;5038878;28;20342;-71
2023/03/15 06:06:38;;;;;;;3.83;0.83;;;;;;;;;;5041396;28;20682;-71
2023/03/15 06:09:03;;;;;;;2.70;1.10;;;;;;;;;;5042767;28;20176;-71
2023/03/15 06:11:29;;;;;;;6.63;1.10;;;;;;;;;;5039346;28;20184;-70
2023/03/15 06:13:54;;;;;;;6.63;1.10;;;;;;;;;;5043297;28;20183;-71
2023/03/15 06:16:20;;;;;;;2.63;1.10;;;;;;;;;;5043021;28;20629;-71
2023/03/15 06:18:45;;;;;;;4.43;1.00;;;;;;;;;;5040369;28;20728;-70
2023/03/15 06:21:10;;;;;;;4.17;1.17;;;;;;;;;;5042977;28;20180;-70
2023/03/15 06:23:38;;;;;;;7.00;1.60;;;;;;;;;;5039760;28;20659;-70
2023/03/15 06:26:04;;;;;;;6.43;1.40;;;;;;;;;;5044815;28;20207;-71
2023/03/15 06:28:29;;;;;;;7.40;1.07;;;;;;;;;;5041650;28;25126;-70
2023/03/15 06:30:54;;;;;;;4.80;1.10;;;;;;;;;;5042483;28;20691;-70
2023/03/15 06:33:23;;;;;;;5.93;1.33;;;;;;;;;;5042985;28;20647;-70
2023/03/15 06:35:48;;;;;;;4.50;1.17;;;;;;;;;;5040373;28;20764;-71
2023/03/15 06:38:14;;;;;;;8.90;1.60;;;;;;;;;;5039287;28;20458;-70
2023/03/15 06:40:39;;;;;;;6.90;1.37;;;;;;;;;;5042073;28;20266;-70
2023/03/15 06:43:05;;;;;;;7.80;1.80;;;;;;;;;;5043963;28;25074;-70
2023/03/15 06:45:31;;;;;;;8.83;1.40;;;;;;;;;;5039789;28;20662;-70
2023/03/15 06:47:56;;;;;;;11.70;2.20;;;;;;;;;;5041195;28;20549;-71
2023/03/15 06:50:21;;;;;;;10.80;1.60;;;;;;;;;;5041760;28;20179;-71
2023/03/15 06:52:46;;;;;;;6.40;1.57;;;;;;;;;;5045125;28;20231;-71
2023/03/15 06:55:16;;;;;;;8.10;2.10;;;;;;;;;;5043300;28;20689;-71
2023/03/15 06:57:42;;;;;;;7.23;2.30;;;;;;;;;;5040034;28;20656;-71
2023/03/15 07:00:10;;;;;;;3.87;1.30;;;;;;;;;;5043168;28;20442;-70
2023/03/15 07:02:36;;;;;;;5.00;1.20;;;;;;;;;;5035454;28;20314;-71
2023/03/15 07:05:01;;;;;;;10.73;1.60;;;;;;;;;;5044212;28;20455;-71
2023/03/15 07:07:29;;;;;;;7.60;1.33;;;;;;;;;;5046578;28;20449;-70
2023/03/15 07:09:54;;;;;;;6.03;1.60;;;;;;;;;;5045465;28;20169;-70
2023/03/15 07:12:20;;;;;;;5.17;1.93;;;;;;;;;;5036859;28;20535;-71
2023/03/15 07:14:45;;;;;;;6.07;1.60;;;;;;;;;;5036963;28;20639;-70
2023/03/15 07:17:10;;;;;;;7.73;1.60;;;;;;;;;;5041196;28;20195;-70
2023/03/15 07:19:36;;;;;;;6.63;1.77;;;;;;;;;;5036536;28;20185;-70
2023/03/15 07:22:01;;;;;;;10.07;1.40;;;;;;;;;;5042627;28;20644;-71
2023/03/15 07:24:27;;;;;;;10.80;2.00;;;;;;;;;;5046584;28;20715;-70
2023/03/15 07:26:55;;;;;;;4.40;1.40;;;;;;;;;;5044792;28;20220;-71
2023/03/15 07:29:20;;;;;;;6.17;2.53;;;;;;;;;;5044749;28;20274;-70
2023/03/15 07:31:45;;;;;;;3.60;1.70;;;;;;;;;;5044742;28;20520;-71
2023/03/15 07:34:11;;;;;;;12.30;2.10;;;;;;;;;;5045736;28;20177;-70
2023/03/15 07:36:36;;;;;;;6.73;1.90;;;;;;;;;;5038506;28;25149;-71
2023/03/15 07:39:02;;;;;;;5.73;1.77;;;;;;;;;;5043297;28;20194;-71
2023/03/15 07:41:27;;;;;;;4.67;1.33;;;;;;;;;;5040111;28;20184;-71
2023/03/15 07:43:52;;;;;;;7.00;1.63;;;;;;;;;;5042726;28;20232;-71
2023/03/15 07:46:18;;;;;;;8.60;2.43;;;;;;;;;;5044967;28;20197;-71
2023/03/15 07:48:43;;;;;;;5.67;2.40;;;;;;;;;;5043598;28;20225;-71
2023/03/15 07:51:08;;;;;;;13.20;1.47;;;;;;;;;;5042525;28;20178;-71
2023/03/15 07:53:33;;;;;;;9.93;2.13;;;;;;;;;;5040497;28;20552;-71
2023/03/15 07:56:00;;;;;;;7.03;1.77;;;;;;;;;;5041807;28;20233;-70
2023/03/15 07:58:25;;;;;;;5.10;1.50;;;;;;;;;;5042921;28;20290;-70
2023/03/15 08:00:52;;;;;;;6.20;1.70;;;;;;;;;;5042965;28;20538;-71
2023/03/15 08:03:18;;;;;;;9.10;1.30;;;;;;;;;;5047660;28;20184;-71
2023/03/15 08:05:43;;;;;;;5.60;1.80;;;;;;;;;;5040262;28;20453;-71
2023/03/15 08:08:08;;;;;;;6.20;1.90;;;;;;;;;;5042587;28;20584;-71
2023/03/15 08:10:34;;;;;;;6.90;1.40;;;;;;;;;;5038680;28;20183;-71
2023/03/15 08:12:59;;;;;;;6.53;1.63;;;;;;;;;;5046628;28;20193;-70
2023/03/15 08:15:24;;;;;;;6.57;1.93;;;;;;;;;;5043393;28;20180;-70
2023/03/15 08:17:50;;;;;;;8.50;1.90;;;;;;;;;;5030265;28;20209;-70
2023/03/15 08:20:17;;;;;;;8.37;1.70;;;;;;;;;;5041659;28;20640;-70
2023/03/15 08:22:43;;;;;;;10.30;1.87;;;;;;;;;;5037209;28;20192;-69
2023/03/15 08:25:10;;;;;;;6.27;1.70;;;;;;;;;;5044605;28;20520;-69
2023/03/15 08:27:35;;;;;;;4.20;1.40;;;;;;;;;;5044643;28;20998;-70
2023/03/15 08:30:00;;;;;;;5.70;1.50;;;;;;;;;;5040473;28;20440;-70
2023/03/15 08:32:26;;;;;;;7.20;1.80;;;;;;;;;;5045418;28;20194;-70
2023/03/15 08:34:51;;;;;;;6.83;1.70;;;;;;;;;;5044141;28;20238;-70
2023/03/15 08:37:17;;;;;;;5.73;1.50;;;;;;;;;;5037655;28;20823;-70
2023/03/15 08:39:42;;;;;;;7.33;1.40;;;;;;;;;;5035695;28;20195;-70
2023/03/15 08:42:08;;;;;;;8.10;2.33;;;;;;;;;;5047457;28;20183;-69
2023/03/15 08:44:33;;;;;;;5.83;1.60;;;;;;;;;;5050259;28;20648;-70
2023/03/15 08:46:58;;;;;;;6.43;1.77;;;;;;;;;;5040824;28;20201;-70
2023/03/15 08:49:24;;;;;;;7.53;1.10;;;;;;;;;;5044724;28;20646;-70
2023/03/15 08:51:49;;;;;;;9.53;1.90;;;;;;;;;;5043012;28;20192;-70
2023/03/15 08:54:15;;;;;;;9.83;1.80;;;;;;;;;;5042304;28;20188;-70
2023/03/15 08:56:41;;;;;;;8.33;2.00;;;;;;;;;;5037210;28;20204;-70
2023/03/15 08:59:06;;;;;;;9.53;1.97;;;;;;;;;;5032448;28;20234;-71
2023/03/15 09:01:32;;;;;;;8.83;1.70;;;;;;;;;;5034909;28;20189;-71
2023/03/15 09:03:57;;;;;;;8.50;1.70;;;;;;;;;;5039448;28;20201;-71
2023/03/15 09:06:23;;;;;;;8.00;1.83;;;;;;;;;;5038858;28;20200;-71
2023/03/15 09:08:48;;;;;;;8.73;1.57;;;;;;;;;;5038203;28;25051;-71
2023/03/15 09:11:13;;;;;;;7.03;2.50;;;;;;;;;;5040315;28;20280;-70
2023/03/15 09:13:39;;;;;;;6.23;1.60;;;;;;;;;;5038730;28;20180;-70
2023/03/15 09:16:04;;;;;;;8.73;1.47;;;;;;;;;;5046023;28;20195;-71
2023/03/15 09:18:30;;;;;;;4.57;1.70;;;;;;;;;;5044581;28;20527;-71
2023/03/15 09:20:55;;;;;;;11.03;2.10;;;;;;;;;;5047070;28;20673;-70
2023/03/15 09:23:21;;;;;;;6.43;1.97;;;;;;;;;;5043186;28;20226;-71
2023/03/15 09:25:47;;;;;;;6.40;1.83;;;;;;;;;;5027543;28;20525;-70
2023/03/15 09:28:12;;;;;;;10.83;1.50;;;;;;;;;;5036994;28;20212;-70
2023/03/15 09:30:38;;;;;;;9.47;2.17;;;;;;;;;;5042854;28;20199;-71
2023/03/15 09:33:03;;;;;;;10.00;1.77;;;;;;;;;;5044075;28;20179;-71
2023/03/15 09:35:29;;;;;;;9.43;2.17;;;;;;;;;;5037392;28;20872;-71
2023/03/15 09:37:54;;;;;;;9.10;1.60;;;;;;;;;;5038594;28;20704;-70
2023/03/15 09:40:30;;;;;;;6.93;1.40;;;;;;;;;;5042141;28;20257;-70
2023/03/15 09:43:17;;;;;;;6.63;1.60;;;;;;;;;;5041326;28;20567;-70
2023/03/15 09:45:47;;;;;;;8.20;1.70;;;;;;;;;;5039369;28;20477;-70
2023/03/15 09:48:12;;;;;;;6.33;1.70;;;;;;;;;;5039745;28;20453;-70
2023/03/15 09:50:44;;;;;;;9.60;2.00;;;;;;;;;;5046115;28;20430;-69
2023/03/15 09:53:13;;;;;;;6.57;1.93;;;;;;;;;;5044711;28;20198;-70
2023/03/15 09:55:38;;;;;;;10.73;1.80;;;;;;;;;;5042739;28;20456;-70
2023/03/15 09:58:08;;;;;;;7.20;1.70;;;;;;;;;;5038981;28;20959;-70
2023/03/15 10:00:40;;;;;;;11.13;2.00;;;;;;;;;;5044808;28;20199;-70
2023/03/15 10:03:08;;;;;;;7.87;1.60;;;;;;;;;;5037533;28;21366;-71
2023/03/15 10:05:44;;;;;;;6.30;1.47;;;;;;;;;;5049676;28;20549;-69
2023/03/15 10:08:10;;;;;;;5.13;1.17;;;;;;;;;;5025433;28;20519;-71
2023/03/15 10:10:38;;;;;;;6.63;1.50;;;;;;;;;;5044034;28;20426;-70
2023/03/15 10:13:09;;;;;;;6.23;1.37;;;;;;;;;;5043844;28;20432;-70
2023/03/15 10:15:35;;;;;;;7.73;2.00;;;;;;;;;;5045537;28;20493;-71
2023/03/15 10:18:00;;;;;;;4.87;1.70;;;;;;;;;;5045100;28;20450;-70
2023/03/15 10:20:28;;;;;;;9.00;1.30;;;;;;;;;;5045468;28;20179;-71
2023/03/15 10:22:53;;;;;;;8.47;1.60;;;;;;;;;;5046843;28;20233;-71
2023/03/15 10:25:24;;;;;;;10.67;2.40;;;;;;;;;;5042164;28;20462;-70
2023/03/15 10:27:58;;;;;;;8.40;1.60;;;;;;;;;;5034738;28;20215;-70
2023/03/15 10:30:24;;;;;;;11.00;2.10;;;;;;;;;;5041111;28;20434;-70
2023/03/15 10:32:59;;;;;;;9.23;1.80;;;;;;;;;;5037953;28;20990;-70
2023/03/15 10:35:24;;;;;;;8.43;1.83;;;;;;;;;;5033113;28;20849;-70
2023/03/15 10:37:50;;;;;;;7.80;1.80;;;;;;;;;;5046012;28;20438;-70
2023/03/15 10:40:35;;;;;;;5.33;1.33;;;;;;;;;;5046124;28;20230;-69
2023/03/15 10:43:00;;;;;;;3.37;1.40;;;;;;;;;;5045846;28;20176;-69
2023/03/15 10:45:27;;;;;;;7.30;2.03;;;;;;;;;;5046406;28;20480;-69
2023/03/15 10:47:53;;;;;;;15.80;3.60;;;;;;;;;;5046021;28;20618;-69
2023/03/15 10:50:26;;;;;;;9.73;2.10;;;;;;;;;;5044629;28;20537;-69
2023/03/15 10:52:54;;;;;;;7.50;1.70;;;;;;;;;;5043677;28;20426;-69
2023/03/15 10:55:24;;;;;;;7.93;2.10;;;;;;;;;;5038102;28;20445;-69
2023/03/15 10:57:54;;;;;;;6.70;1.70;;;;;;;;;;5046127;28;20450;-69
2023/03/15 11:00:30;;;;;;;4.90;1.40;;;;;;;;;;5046143;28;20438;-71
2023/03/15 11:03:09;;;;;;;9.00;1.80;;;;;;;;;;5045093;28;20534;-69
2023/03/15 11:05:39;;;;;;;10.63;2.20;;;;;;;;;;5046091;28;20469;-69
2023/03/15 11:08:09;;;;;;;8.83;1.40;;;;;;;;;;5037885;28;20595;-69
2023/03/15 11:10:35;;;;;;;7.10;1.50;;;;;;;;;;5047474;28;20468;-69
2023/03/15 11:13:11;;;;;;;12.17;2.17;;;;;;;;;;5048791;28;20776;-69
2023/03/15 11:15:36;;;;;;;11.80;2.17;;;;;;;;;;5051230;28;20206;-69
2023/03/15 11:18:02;;;;;;;9.90;2.27;;;;;;;;;;5046157;28;20844;-69
2023/03/15 11:20:29;;;;;;;5.30;1.87;;;;;;;;;;5050439;28;20493;-69
2023/03/15 11:22:55;;;;;;;6.73;1.47;;;;;;;;;;5046212;28;20176;-69
2023/03/15 11:25:22;;;;;;;9.40;1.90;;;;;;;;;;5065021;28;20645;-68
2023/03/15 11:27:52;;;;;;;5.10;1.57;;;;;;;;;;5061390;28;20457;-69
2023/03/15 11:30:20;;;;;;;3.83;1.23;;;;;;;;;;5049517;28;20417;-68
2023/03/15 11:32:46;;;;;;;8.33;1.80;;;;;;;;;;5050467;28;20406;-68
2023/03/15 11:35:17;;;;;;;4.00;1.60;;;;;;;;;;5045967;28;20464;-68
2023/03/15 11:37:47;;;;;;;3.70;1.23;;;;;;;;;;5041505;28;20789;-68
2023/03/15 11:40:24;;;;;;;9.33;1.93;;;;;;;;;;5035084;28;20528;-68
2023/03/15 11:43:15;;;;;;;9.23;1.77;;;;;;;;;;5039459;28;20434;-68
2023/03/15 11:45:40;;;;;;;5.10;1.50;;;;;;;;;;5036135;28;20473;-69
2023/03/15 11:48:12;;;;;;;5.87;1.60;;;;;;;;;;5044575;28;20445;-69
2023/03/15 11:50:37;;;;;;;8.73;2.00;;;;;;;;;;5045632;28;20274;-74
2023/03/15 11:53:05;;;;;;;6.17;2.00;;;;;;;;;;5045804;28;20524;-68
2023/03/15 11:55:32;;;;;;;7.70;1.63;;;;;;;;;;5046980;28;20212;-68
2023/03/15 11:58:17;;;;;;;8.20;1.70;;;;;;;;;;5043887;28;20971;-68
2023/03/15 12:00:46;;;;;;;7.37;1.50;;;;;;;;;;5045238;28;20190;-68
2023/03/15 12:03:27;;;;;;;6.87;1.77;;;;;;;;;;5042741;28;20441;-68
2023/03/15 12:06:07;;;;;;;5.23;1.50;;;;;;;;;;5043256;28;20446;-69
2023/03/15 12:08:42;;;;;;;10.60;2.10;;;;;;;;;;5042354;28;20866;-68
2023/03/15 12:11:30;;;;;;;5.17;1.43;;;;;;;;;;5043708;28;20444;-68
2023/03/15 12:13:58;;;;;;;4.93;1.70;;;;;;;;;;5041788;28;20538;-69
2023/03/15 12:16:49;;;;;;;6.90;1.93;;;;;;;;;;5046385;28;20458;-68
2023/03/15 12:19:19;;;;;;;6.53;1.70;;;;;;;;;;5041407;28;20450;-68
2023/03/15 12:21:52;;;;;;;7.47;2.33;;;;;;;;;;5046011;28;20474;-68
2023/03/15 12:24:24;;;;;;;4.53;1.33;;;;;;;;;;5045244;28;20539;-68
2023/03/15 12:26:57;;;;;;;4.60;1.80;;;;;;;;;;5045166;28;20479;-68
2023/03/15 12:29:24;;;;;;;12.70;1.90;;;;;;;;;;5040915;28;20474;-69
2023/03/15 12:31:59;;;;;;;5.80;1.70;;;;;;;;;;5046074;28;20431;-68
2023/03/15 12:34:24;;;;;;;7.20;1.60;;;;;;;;;;5042616;28;20441;-69
2023/03/15 12:36:51;;;;;;;6.90;1.80;;;;;;;;;;5044214;28;20465;-68
2023/03/15 12:39:17;;;;;;;10.03;1.30;;;;;;;;;;5043116;28;20226;-68
2023/03/15 12:41:43;;;;;;;8.87;1.77;;;;;;;;;;5043618;28;20441;-68
2023/03/15 12:44:27;;;;;;;4.90;1.30;;;;;;;;;;5039861;28;20217;-69
2023/03/15 12:46:54;;;;;;;8.20;1.63;;;;;;;;;;5061214;28;20840;-68
2023/03/15 12:49:22;;;;;;;7.20;1.43;;;;;;;;;;5042478;28;20427;-68
2023/03/15 12:51:55;;;;;;;3.90;1.57;;;;;;;;;;5042218;28;20543;-68
2023/03/15 12:54:22;;;;;;;7.17;1.60;;;;;;;;;;5041818;28;20434;-68
2023/03/15 12:56:53;;;;;;;12.40;1.83;;;;;;;;;;5029193;28;20461;-68
2023/03/15 12:59:37;;;;;;;8.10;1.40;;;;;;;;;;5035592;28;20464;-68
2023/03/15 13:02:07;;;;;;;4.47;1.30;;;;;;;;;;5043267;28;21010;-68
2023/03/15 13:04:33;;;;;;;3.57;1.70;;;;;;;;;;5044091;28;20466;-68
2023/03/15 13:07:17;;;;;;;8.27;1.30;;;;;;;;;;5035936;28;20454;-69
2023/03/15 13:09:48;;;;;;;3.70;1.43;;;;;;;;;;5043845;28;20990;-69
2023/03/15 13:12:19;;;;;;;7.33;1.40;;;;;;;;;;5035156;28;20434;-71
2023/03/15 13:15:01;;;;;;;7.20;1.40;;;;;;;;;;5041031;28;20868;-69
2023/03/15 13:17:33;;;;;;;6.40;1.30;;;;;;;;;;5035848;28;20453;-68
2023/03/15 13:20:28;;;;;;;3.23;1.30;;;;;;;;;;5045997;28;20437;-68
2023/03/15 13:23:05;;;;;;;4.77;1.67;;;;;;;;;;4958138;28;20477;-68
2023/03/15 13:26:01;;;;;;;5.80;1.50;;;;;;;;;;5041232;28;20527;-68
2023/03/15 13:28:36;;;;;;;4.63;1.10;;;;;;;;;;5021674;28;20951;-68
2023/03/15 13:31:09;;;;;;;10.83;1.70;;;;;;;;;;5042092;28;20532;-68
2023/03/15 13:33:34;;;;;;;5.17;2.10;;;;;;;;;;5041794;28;20427;-68
2023/03/15 13:36:00;;;;;;;5.30;1.60;;;;;;;;;;5043530;28;20433;-68
2023/03/15 13:38:28;;;;;;;6.30;1.60;;;;;;;;;;5040902;28;20214;-68
2023/03/15 13:40:55;;;;;;;6.33;1.60;;;;;;;;;;5043106;28;20491;-69
2023/03/15 13:43:23;;;;;;;6.47;1.47;;;;;;;;;;5039210;28;20537;-68
2023/03/15 13:45:49;;;;;;;3.40;1.20;;;;;;;;;;5041642;28;20462;-68
2023/03/15 13:48:16;;;;;;;7.20;1.97;;;;;;;;;;5041151;28;20430;-69
2023/03/15 13:50:46;;;;;;;3.20;1.23;;;;;;;;;;5040985;28;20639;-68
2023/03/15 13:53:17;;;;;;;11.10;1.70;;;;;;;;;;5048274;28;20406;-67
2023/03/15 13:55:48;;;;;;;7.43;1.50;;;;;;;;;;5044161;28;20944;-68
2023/03/15 13:58:13;;;;;;;5.63;1.23;;;;;;;;;;5041720;28;20445;-68
2023/03/15 14:00:38;;;;;;;5.50;1.40;;;;;;;;;;5038807;28;20438;-68
2023/03/15 14:03:11;;;;;;;8.53;1.30;;;;;;;;;;5045661;28;20274;-68
2023/03/15 14:05:45;;;;;;;3.03;1.23;;;;;;;;;;5042048;28;20207;-68
2023/03/15 14:08:20;;;;;;;5.17;2.50;;;;;;;;;;5041231;28;21167;-68
2023/03/15 14:10:56;;;;;;;5.80;1.50;;;;;;;;;;5031547;28;20496;-68
2023/03/15 14:13:23;;;;;;;6.30;1.63;;;;;;;;;;5034049;28;20560;-68
2023/03/15 14:15:49;;;;;;;7.63;1.33;;;;;;;;;;5042540;28;21125;-68
2023/03/15 14:18:15;;;;;;;4.43;1.20;;;;;;;;;;5031119;28;20495;-68
2023/03/15 14:20:46;;;;;;;7.10;1.53;;;;;;;;;;5044032;28;20194;-68
2023/03/15 14:23:13;;;;;;;4.80;1.60;;;;;;;;;;5041112;28;20912;-68
2023/03/15 14:25:38;;;;;;;10.33;1.60;;;;;;;;;;5035349;28;21256;-68
2023/03/15 14:28:04;;;;;;;5.13;1.57;;;;;;;;;;5041197;28;20473;-68
2023/03/15 14:30:31;;;;;;;6.40;1.53;;;;;;;;;;5043182;28;20266;-68
2023/03/15 14:32:57;;;;;;;4.83;1.37;;;;;;;;;;5042278;28;20547;-69
2023/03/15 14:35:30;;;;;;;8.00;1.70;;;;;;;;;;5039638;28;20580;-68
2023/03/15 14:38:05;;;;;;;3.53;1.27;;;;;;;;;;5054616;28;20454;-68
2023/03/15 14:40:34;;;;;;;4.37;1.33;;;;;;;;;;5040828;28;20778;-68
2023/03/15 14:43:00;;;;;;;10.03;2.10;;;;;;;;;;5042619;28;20434;-68